Time,TemperatureF,DewpointF,PressureIn,WindDirection,WindDirectionDegrees,WindSpeedMPH,WindSpeedGustMPH,Humidity,HourlyPrecipIn,Conditions,Clouds,dailyrainin,SoftwareType,DateUTC
2013-04-03 00:02:00,54.0,42.0,30.05,NE,40,12.0,18.0,64,0.00,,,0.00,,2013-04-03 05:02:00,
2013-04-03 00:12:00,54.0,42.0,30.05,NE,40,12.0,18.0,64,0.00,,,0.00,,2013-04-03 05:12:00,
2013-04-03 00:22:00,54.0,42.0,30.05,NNE,32,12.0,18.0,63,0.00,,,0.00,,2013-04-03 05:22:00,
2013-04-03 00:32:00,54.0,43.0,30.03,NE,46,12.0,17.0,66,0.00,,,0.00,,2013-04-03 05:32:00,
2013-04-03 00:42:00,54.0,43.0,30.03,NE,46,12.0,17.0,66,0.00,,,0.00,,2013-04-03 05:42:00,
2013-04-03 00:52:00,53.0,42.0,30.04,NE,34,9.0,16.0,67,0.00,,,0.00,,2013-04-03 05:52:00,
2013-04-03 01:02:00,53.0,42.0,30.04,NNE,26,13.0,18.0,67,0.00,,,0.00,,2013-04-03 06:02:00,
2013-04-03 01:12:00,53.0,42.0,30.04,NNE,26,13.0,18.0,67,0.00,,,0.00,,2013-04-03 06:12:00,
2013-04-03 01:22:00,52.0,41.0,30.05,NNE,20,13.0,18.0,67,0.00,,,0.00,,2013-04-03 06:22:00,
2013-04-03 01:32:00,51.0,41.0,30.04,NE,36,13.0,20.0,69,0.00,,,0.00,,2013-04-03 06:32:00,
2013-04-03 01:42:00,51.0,41.0,30.04,NE,36,13.0,20.0,69,0.00,,,0.00,,2013-04-03 06:42:00,
2013-04-03 01:52:00,51.0,41.0,30.04,NNE,24,16.0,24.0,69,0.00,,,0.00,,2013-04-03 06:52:00,
2013-04-03 02:02:00,51.0,41.0,30.04,NNE,30,15.0,21.0,69,0.00,,,0.00,,2013-04-03 07:02:00,
2013-04-03 02:12:00,51.0,41.0,30.04,NNE,30,15.0,21.0,69,0.00,,,0.00,,2013-04-03 07:12:00,
2013-04-03 02:23:00,51.0,41.0,30.03,NE,38,13.0,20.0,69,0.00,,,0.00,,2013-04-03 07:23:00,
2013-04-03 02:32:00,50.0,40.0,30.02,NE,38,16.0,23.0,68,0.00,,,0.00,,2013-04-03 07:32:00,
2013-04-03 02:42:00,50.0,40.0,30.02,NE,38,16.0,23.0,68,0.00,,,0.00,,2013-04-03 07:42:00,
2013-04-03 02:52:00,50.0,40.0,30.02,NE,34,14.0,19.0,69,0.00,,,0.00,,2013-04-03 07:52:00,
2013-04-03 03:03:00,50.0,40.0,30.03,NE,42,11.0,21.0,68,0.00,,,0.00,,2013-04-03 08:03:00,
2013-04-03 03:12:00,50.0,40.0,30.03,NE,42,11.0,21.0,68,0.00,,,0.00,,2013-04-03 08:12:00,
2013-04-03 03:22:00,49.0,41.0,30.03,NNE,24,13.0,17.0,75,0.00,,,0.00,,2013-04-03 08:22:00,
2013-04-03 03:32:00,49.0,42.0,30.02,NE,35,11.0,16.0,76,0.00,,,0.00,,2013-04-03 08:32:00,
2013-04-03 03:42:00,49.0,42.0,30.02,NE,35,11.0,16.0,76,0.00,,,0.00,,2013-04-03 08:42:00,
2013-04-03 03:52:00,49.0,41.0,30.01,NE,35,12.0,16.0,75,0.00,,,0.00,,2013-04-03 08:52:00,
2013-04-03 04:02:00,49.0,41.0,30.01,NE,42,11.0,18.0,75,0.00,,,0.00,,2013-04-03 09:02:00,
2013-04-03 04:12:00,49.0,41.0,30.01,NE,42,11.0,18.0,75,0.00,,,0.00,,2013-04-03 09:12:00,
2013-04-03 04:22:00,49.0,41.0,30.03,NNE,31,9.0,15.0,74,0.00,,,0.00,,2013-04-03 09:22:00,
2013-04-03 04:33:00,49.0,41.0,30.03,NE,44,8.0,12.0,75,0.00,,,0.00,,2013-04-03 09:33:00,
2013-04-03 04:43:00,49.0,41.0,30.03,NE,44,8.0,12.0,75,0.00,,,0.00,,2013-04-03 09:43:00,
2013-04-03 04:52:00,48.0,41.0,30.03,NE,40,8.0,15.0,78,0.01,,,0.01,,2013-04-03 09:52:00,
2013-04-03 05:03:00,48.0,42.0,30.02,NE,49,9.0,12.0,79,0.02,,,0.02,,2013-04-03 10:03:00,
2013-04-03 05:12:00,48.0,42.0,30.02,NE,49,9.0,12.0,79,0.02,,,0.02,,2013-04-03 10:12:00,
2013-04-03 05:22:00,47.0,41.0,30.03,NE,48,7.0,11.0,81,0.02,,,0.02,,2013-04-03 10:22:00,
2013-04-03 05:33:00,47.0,42.0,30.04,NE,46,7.0,10.0,84,0.04,,,0.04,,2013-04-03 10:33:00,
2013-04-03 05:43:00,47.0,42.0,30.04,NE,46,7.0,10.0,84,0.04,,,0.04,,2013-04-03 10:43:00,
2013-04-03 05:52:00,47.0,42.0,30.04,NNE,23,9.0,12.0,84,0.05,,,0.06,,2013-04-03 10:52:00,
2013-04-03 06:02:00,47.0,42.0,30.05,NE,42,9.0,13.0,84,0.05,,,0.07,,2013-04-03 11:02:00,
2013-04-03 06:12:00,47.0,42.0,30.05,NE,42,9.0,13.0,84,0.05,,,0.07,,2013-04-03 11:12:00,
2013-04-03 06:22:00,46.0,41.0,30.06,NE,41,10.0,15.0,83,0.05,,,0.08,,2013-04-03 11:22:00,
2013-04-03 06:32:00,46.0,41.0,30.07,NNE,30,10.0,16.0,84,0.05,,,0.09,,2013-04-03 11:32:00,
2013-04-03 06:42:00,46.0,41.0,30.07,NNE,30,10.0,16.0,84,0.05,,,0.09,,2013-04-03 11:42:00,
2013-04-03 06:52:00,46.0,41.0,30.07,NE,51,11.0,16.0,84,0.05,,,0.11,,2013-04-03 11:52:00,
2013-04-03 07:02:00,46.0,41.0,30.07,NNE,26,11.0,16.0,83,0.05,,,0.12,,2013-04-03 12:02:00,
2013-04-03 07:13:00,46.0,41.0,30.07,NNE,26,11.0,16.0,83,0.05,,,0.12,,2013-04-03 12:13:00,
2013-04-03 07:22:00,46.0,41.0,30.06,NE,44,14.0,19.0,84,0.04,,,0.12,,2013-04-03 12:22:00,
2013-04-03 07:32:00,46.0,41.0,30.05,NE,40,14.0,18.0,83,0.03,,,0.12,,2013-04-03 12:32:00,
2013-04-03 07:42:00,46.0,41.0,30.05,NE,40,14.0,18.0,83,0.03,,,0.12,,2013-04-03 12:42:00,
2013-04-03 07:52:00,46.0,41.0,30.04,NE,49,14.0,20.0,84,0.01,,,0.12,,2013-04-03 12:52:00,
2013-04-03 08:02:00,46.0,41.0,30.04,NE,42,12.0,18.0,84,0.00,,,0.12,,2013-04-03 13:02:00,
2013-04-03 08:12:00,46.0,41.0,30.04,NE,42,12.0,18.0,84,0.00,,,0.12,,2013-04-03 13:12:00,
2013-04-03 08:22:00,46.0,41.0,30.04,ENE,64,14.0,18.0,83,0.01,,,0.13,,2013-04-03 13:22:00,
2013-04-03 08:32:00,46.0,41.0,30.05,NE,38,11.0,17.0,82,0.01,,,0.13,,2013-04-03 13:32:00,
2013-04-03 08:42:00,46.0,41.0,30.05,NE,38,11.0,17.0,82,0.01,,,0.13,,2013-04-03 13:42:00,
2013-04-03 08:52:00,46.0,41.0,30.05,ENE,58,12.0,18.0,82,0.02,,,0.14,,2013-04-03 13:52:00,
2013-04-03 09:02:00,46.0,41.0,30.04,ENE,65,12.0,19.0,82,0.03,,,0.15,,2013-04-03 14:02:00,
2013-04-03 09:12:00,46.0,41.0,30.04,ENE,65,12.0,19.0,82,0.03,,,0.15,,2013-04-03 14:12:00,
2013-04-03 09:22:00,46.0,41.0,30.03,NE,44,13.0,20.0,82,0.03,,,0.16,,2013-04-03 14:22:00,
2013-04-03 09:32:00,46.0,41.0,30.02,NE,55,15.0,20.0,82,0.03,,,0.16,,2013-04-03 14:32:00,
2013-04-03 09:42:00,46.0,41.0,30.02,NE,55,15.0,20.0,82,0.03,,,0.16,,2013-04-03 14:42:00,
2013-04-03 09:52:00,46.0,41.0,30.01,NNE,29,14.0,23.0,82,0.02,,,0.16,,2013-04-03 14:52:00,
2013-04-03 10:02:00,47.0,41.0,30.03,NNE,31,11.0,22.0,81,0.01,,,0.16,,2013-04-03 15:02:00,
2013-04-03 10:12:00,47.0,41.0,30.03,NNE,31,11.0,22.0,81,0.01,,,0.16,,2013-04-03 15:12:00,
2013-04-03 10:23:00,47.0,41.0,30.02,NE,45,14.0,22.0,81,0.00,,,0.16,,2013-04-03 15:23:00,
2013-04-03 10:33:00,47.0,42.0,30.01,ENE,65,14.0,20.0,82,0.00,,,0.16,,2013-04-03 15:33:00,
2013-04-03 10:42:00,47.0,42.0,30.01,ENE,65,14.0,20.0,82,0.00,,,0.16,,2013-04-03 15:42:00,
2013-04-03 10:53:00,47.0,42.0,30.01,NE,46,14.0,19.0,82,0.00,,,0.16,,2013-04-03 15:53:00,
2013-04-03 11:03:00,47.0,41.0,30.02,ENE,65,15.0,20.0,80,0.00,,,0.16,,2013-04-03 16:03:00,
2013-04-03 11:12:00,47.0,41.0,30.02,ENE,65,15.0,20.0,80,0.00,,,0.16,,2013-04-03 16:12:00,
2013-04-03 11:24:00,47.0,41.0,30.04,NE,39,15.0,19.0,79,0.00,,,0.16,,2013-04-03 16:24:00,
2013-04-03 11:32:00,47.0,41.0,30.06,NE,53,11.0,17.0,80,0.00,,,0.16,,2013-04-03 16:32:00,
2013-04-03 11:43:00,47.0,41.0,30.06,NE,53,11.0,17.0,80,0.00,,,0.16,,2013-04-03 16:43:00,
2013-04-03 11:52:00,46.0,42.0,30.07,ENE,63,14.0,19.0,86,0.03,,,0.19,,2013-04-03 16:52:00,
2013-04-03 12:03:00,45.0,42.0,30.08,NNE,27,13.0,17.0,89,0.06,,,0.22,,2013-04-03 17:03:00,
2013-04-03 12:13:00,45.0,42.0,30.08,NNE,27,13.0,17.0,89,0.06,,,0.22,,2013-04-03 17:13:00,
2013-04-03 12:23:00,45.0,42.0,30.07,NNE,27,15.0,20.0,90,0.09,,,0.25,,2013-04-03 17:23:00,
2013-04-03 12:33:00,45.0,43.0,30.07,North,9,13.0,20.0,91,0.12,,,0.28,,2013-04-03 17:33:00,
2013-04-03 12:46:00,45.0,43.0,30.07,North,9,13.0,20.0,91,0.12,,,0.28,,2013-04-03 17:46:00,
2013-04-03 12:53:00,45.0,42.0,30.08,NNE,28,16.0,22.0,90,0.11,,,0.30,,2013-04-03 17:53:00,
2013-04-03 13:02:00,45.0,42.0,30.09,NE,34,16.0,23.0,90,0.09,,,0.31,,2013-04-03 18:02:00,
2013-04-03 13:13:00,45.0,42.0,30.09,NE,34,16.0,23.0,90,0.09,,,0.31,,2013-04-03 18:13:00,
2013-04-03 13:22:00,45.0,42.0,30.09,NNE,25,14.0,21.0,90,0.07,,,0.32,,2013-04-03 18:22:00,
2013-04-03 13:33:00,44.0,42.0,30.09,NNE,14,12.0,21.0,91,0.04,,,0.32,,2013-04-03 18:33:00,
2013-04-03 13:43:00,44.0,42.0,30.09,NNE,14,12.0,21.0,91,0.04,,,0.32,,2013-04-03 18:43:00,
2013-04-03 13:52:00,44.0,42.0,30.09,NE,44,16.0,21.0,91,0.02,,,0.32,,2013-04-03 18:52:00,
2013-04-03 14:03:00,44.0,42.0,30.09,NNE,19,13.0,23.0,92,0.01,,,0.32,,2013-04-03 19:03:00,
2013-04-03 14:12:00,44.0,42.0,30.09,NNE,19,13.0,23.0,92,0.01,,,0.32,,2013-04-03 19:12:00,
2013-04-03 14:22:00,44.0,42.0,30.08,NE,44,14.0,21.0,92,0.01,,,0.33,,2013-04-03 19:22:00,
2013-04-03 14:32:00,44.0,42.0,30.07,NE,42,15.0,21.0,92,0.03,,,0.35,,2013-04-03 19:32:00,
2013-04-03 14:42:00,44.0,42.0,30.07,NE,42,15.0,21.0,92,0.03,,,0.35,,2013-04-03 19:42:00,
2013-04-03 14:52:00,45.0,43.0,30.05,NE,40,17.0,23.0,92,0.04,,,0.36,,2013-04-03 19:52:00,
2013-04-03 15:02:00,45.0,43.0,30.04,NE,36,18.0,27.0,91,0.04,,,0.36,,2013-04-03 20:02:00,
2013-04-03 15:12:00,45.0,43.0,30.04,NE,36,18.0,27.0,91,0.04,,,0.36,,2013-04-03 20:12:00,
2013-04-03 15:23:00,45.0,43.0,30.03,NE,40,15.0,24.0,91,0.03,,,0.36,,2013-04-03 20:23:00,
2013-04-03 15:32:00,45.0,43.0,30.02,NNE,32,18.0,26.0,91,0.01,,,0.36,,2013-04-03 20:32:00,
2013-04-03 15:42:00,45.0,43.0,30.02,NNE,32,18.0,26.0,91,0.01,,,0.36,,2013-04-03 20:42:00,
2013-04-03 15:52:00,45.0,42.0,30.02,NE,41,17.0,26.0,90,0.00,,,0.36,,2013-04-03 20:52:00,
2013-04-03 16:02:00,45.0,42.0,30.03,NE,47,18.0,25.0,89,0.00,,,0.36,,2013-04-03 21:02:00,
2013-04-03 16:12:00,45.0,42.0,30.03,NE,47,18.0,25.0,89,0.00,,,0.36,,2013-04-03 21:12:00,
2013-04-03 16:22:00,45.0,42.0,30.03,NE,34,15.0,24.0,89,0.00,,,0.36,,2013-04-03 21:22:00,
2013-04-03 16:33:00,46.0,43.0,30.02,NE,42,16.0,22.0,89,0.00,,,0.36,,2013-04-03 21:33:00,
2013-04-03 16:42:00,46.0,43.0,30.02,NE,42,16.0,22.0,89,0.00,,,0.36,,2013-04-03 21:42:00,
2013-04-03 16:52:00,45.0,42.0,30.02,NE,42,17.0,23.0,89,0.00,,,0.36,,2013-04-03 21:52:00,
2013-04-03 17:02:00,45.0,42.0,30.03,NE,43,14.0,22.0,90,0.00,,,0.36,,2013-04-03 22:02:00,
2013-04-03 17:12:00,45.0,42.0,30.03,NE,43,14.0,22.0,90,0.00,,,0.36,,2013-04-03 22:12:00,
2013-04-03 17:22:00,45.0,42.0,30.03,NE,40,13.0,24.0,89,0.00,,,0.36,,2013-04-03 22:22:00,
2013-04-03 17:32:00,45.0,42.0,30.03,ENE,57,19.0,25.0,90,0.00,,,0.36,,2013-04-03 22:32:00,
2013-04-03 17:42:00,45.0,42.0,30.03,ENE,57,19.0,25.0,90,0.00,,,0.36,,2013-04-03 22:42:00,
2013-04-03 17:52:00,45.0,42.0,30.03,ENE,59,16.0,22.0,90,0.00,,,0.36,,2013-04-03 22:52:00,
2013-04-03 18:02:00,45.0,43.0,30.04,ENE,57,14.0,22.0,91,0.00,,,0.36,,2013-04-03 23:02:00,
2013-04-03 18:12:00,45.0,43.0,30.04,ENE,57,14.0,22.0,91,0.00,,,0.36,,2013-04-03 23:12:00,
2013-04-03 18:22:00,45.0,42.0,30.03,NE,42,16.0,24.0,90,0.00,,,0.36,,2013-04-03 23:22:00,
2013-04-03 18:32:00,45.0,43.0,30.02,NE,45,16.0,22.0,91,0.00,,,0.36,,2013-04-03 23:32:00,
2013-04-03 18:42:00,45.0,43.0,30.02,NE,45,16.0,22.0,91,0.00,,,0.36,,2013-04-03 23:42:00,
2013-04-03 18:53:00,45.0,43.0,30.03,NE,35,15.0,21.0,92,0.00,,,0.36,,2013-04-03 23:53:00,
2013-04-03 19:03:00,45.0,43.0,30.03,NE,46,13.0,21.0,92,0.00,,,0.36,,2013-04-04 00:03:00,
2013-04-03 19:12:00,45.0,43.0,30.03,NE,46,13.0,21.0,92,0.00,,,0.36,,2013-04-04 00:12:00,
2013-04-03 19:22:00,45.0,43.0,30.02,NE,48,15.0,20.0,92,0.00,,,0.36,,2013-04-04 00:22:00,
2013-04-03 19:32:00,45.0,43.0,30.02,NE,47,14.0,24.0,91,0.00,,,0.36,,2013-04-04 00:32:00,
2013-04-03 19:43:00,45.0,43.0,30.02,NE,47,14.0,24.0,91,0.00,,,0.36,,2013-04-04 00:43:00,
2013-04-03 19:52:00,45.0,43.0,30.03,NE,44,12.0,18.0,91,0.00,,,0.36,,2013-04-04 00:52:00,
2013-04-03 20:02:00,45.0,43.0,30.02,NE,38,14.0,22.0,91,0.00,,,0.36,,2013-04-04 01:02:00,
2013-04-03 20:12:00,45.0,43.0,30.02,NE,38,14.0,22.0,91,0.00,,,0.36,,2013-04-04 01:12:00,
2013-04-03 20:22:00,45.0,43.0,30.03,NE,36,10.0,18.0,91,0.00,,,0.36,,2013-04-04 01:22:00,
2013-04-03 20:32:00,45.0,43.0,30.04,NNE,30,13.0,20.0,91,0.00,,,0.36,,2013-04-04 01:32:00,
2013-04-03 20:43:00,45.0,43.0,30.04,NNE,30,13.0,20.0,91,0.00,,,0.36,,2013-04-04 01:43:00,
2013-04-03 20:52:00,45.0,42.0,30.05,NE,44,11.0,20.0,90,0.00,,,0.36,,2013-04-04 01:52:00,
2013-04-03 21:02:00,45.0,43.0,30.06,NE,50,11.0,15.0,91,0.00,,,0.36,,2013-04-04 02:02:00,
2013-04-03 21:12:00,45.0,43.0,30.06,NE,50,11.0,15.0,91,0.00,,,0.36,,2013-04-04 02:12:00,
2013-04-03 21:22:00,45.0,43.0,30.06,ENE,57,12.0,16.0,91,0.00,,,0.36,,2013-04-04 02:22:00,
2013-04-03 21:32:00,45.0,43.0,30.07,NE,52,10.0,17.0,91,0.00,,,0.36,,2013-04-04 02:32:00,
2013-04-03 21:42:00,45.0,43.0,30.07,NE,52,10.0,17.0,91,0.00,,,0.36,,2013-04-04 02:42:00,
2013-04-03 21:52:00,45.0,43.0,30.07,NE,52,10.0,17.0,91,0.00,,,0.36,,2013-04-04 02:52:00,
2013-04-03 22:02:00,46.0,44.0,30.07,NE,47,11.0,17.0,91,0.00,,,0.36,,2013-04-04 03:02:00,
2013-04-03 22:12:00,46.0,44.0,30.07,NE,47,11.0,17.0,91,0.00,,,0.36,,2013-04-04 03:12:00,
2013-04-03 22:22:00,46.0,44.0,30.06,NE,39,12.0,17.0,91,0.00,,,0.36,,2013-04-04 03:22:00,
2013-04-03 22:33:00,46.0,44.0,30.07,NE,51,10.0,16.0,91,0.00,,,0.36,,2013-04-04 03:33:00,
2013-04-03 22:44:00,46.0,44.0,30.07,NE,51,10.0,16.0,91,0.00,,,0.36,,2013-04-04 03:44:00,
2013-04-03 22:53:00,46.0,44.0,30.08,NE,44,8.0,12.0,91,0.00,,,0.36,,2013-04-04 03:53:00,
2013-04-03 23:03:00,46.0,44.0,30.08,NE,49,11.0,14.0,91,0.00,,,0.36,,2013-04-04 04:03:00,
2013-04-03 23:12:00,46.0,44.0,30.08,NE,49,11.0,14.0,91,0.00,,,0.36,,2013-04-04 04:12:00,
2013-04-03 23:23:00,46.0,44.0,30.07,NE,42,11.0,15.0,91,0.00,,,0.36,,2013-04-04 04:23:00,
2013-04-03 23:33:00,46.0,44.0,30.08,ENE,57,10.0,14.0,91,0.00,,,0.36,,2013-04-04 04:33:00,
2013-04-03 23:43:00,46.0,44.0,30.08,ENE,57,10.0,14.0,91,0.00,,,0.36,,2013-04-04 04:43:00,
2013-04-03 23:52:00,45.0,43.0,30.08,NE,41,9.0,12.0,92,0.00,,,0.36,,2013-04-04 04:52:00,